Seattle, Washington
Traffic Map
Current Weather Conditions
Seattle, Washington
Clear
Clear
47°
Feels Like: 47°
Wind Chill: 47° Ceiling: Unl
Heat Index: 47° Visibility: 10mi
Dew Point: 38° Wind: 3mph
Humidity: 71% Direction: 110° (ESE)
Pressure: 30.34in Gusts: 0mph
Raw Report DataKBFI 221653Z 11003KT 10SM CLR 08/03 A3034 RMK AO2 SLP274 T00830033
Traffic Incident Summary
Active as of:
Severity:
Category:
InformationThere was an issue retrieving the traffic information for this location. Please try a different location or try again shortly.
Advertisements
Track Severe Weather on mobile